sensor_id;sensor_type;location;lat;lon;timestamp;pressure;altitude;pressure_sealevel;temperature;humidity
63439;BME280;49567;48.958;8.294;2023-05-21T00:01:42;99999.13;;;18.93;62.36
63439;BME280;49567;48.958;8.294;2023-05-21T00:04:07;100006.56;;;18.93;62.15
63439;BME280;49567;48.958;8.294;2023-05-21T00:06:36;100008.97;;;18.94;62.22
63439;BME280;49567;48.958;8.294;2023-05-21T00:09:04;99998.94;;;18.90;62.41
63439;BME280;49567;48.958;8.294;2023-05-21T00:11:30;100002.81;;;18.89;62.32
63439;BME280;49567;48.958;8.294;2023-05-21T00:13:55;100004.44;;;18.90;62.41
63439;BME280;49567;48.958;8.294;2023-05-21T00:16:21;100006.84;;;18.91;62.54
63439;BME280;49567;48.958;8.294;2023-05-21T00:18:47;100002.00;;;18.88;62.62
63439;BME280;49567;48.958;8.294;2023-05-21T00:21:18;100004.44;;;18.90;62.50
63439;BME280;49567;48.958;8.294;2023-05-21T00:23:50;99999.88;;;18.85;62.59
63439;BME280;49567;48.958;8.294;2023-05-21T00:26:15;99999.88;;;18.85;62.55
63439;BME280;49567;48.958;8.294;2023-05-21T00:28:41;99992.13;;;18.87;62.64
63439;BME280;49567;48.958;8.294;2023-05-21T00:31:06;99989.19;;;18.84;62.72
63439;BME280;49567;48.958;8.294;2023-05-21T00:33:31;99979.16;;;18.79;62.85
63439;BME280;49567;48.958;8.294;2023-05-21T00:35:56;99981.69;;;18.76;63.19
63439;BME280;49567;48.958;8.294;2023-05-21T00:38:22;99978.94;;;18.76;63.20
63439;BME280;49567;48.958;8.294;2023-05-21T00:40:48;99973.13;;;18.77;63.17
63439;BME280;49567;48.958;8.294;2023-05-21T00:43:14;99966.03;;;18.76;63.09
63439;BME280;49567;48.958;8.294;2023-05-21T00:45:40;99968.16;;;18.79;63.10
63439;BME280;49567;48.958;8.294;2023-05-21T00:48:08;99963.78;;;18.78;63.07
63439;BME280;49567;48.958;8.294;2023-05-21T00:50:36;99961.03;;;18.78;62.99
63439;BME280;49567;48.958;8.294;2023-05-21T00:53:05;99959.41;;;18.77;62.89
63439;BME280;49567;48.958;8.294;2023-05-21T00:55:45;99962.00;;;18.74;63.19
63439;BME280;49567;48.958;8.294;2023-05-21T00:58:11;99952.03;;;18.64;63.57
63439;BME280;49567;48.958;8.294;2023-05-21T01:00:36;99949.00;;;18.65;63.61
63439;BME280;49567;48.958;8.294;2023-05-21T01:03:02;99949.00;;;18.65;63.42
63439;BME280;49567;48.958;8.294;2023-05-21T01:05:29;99950.00;;;18.70;63.60
63439;BME280;49567;48.958;8.294;2023-05-21T01:07:55;99950.31;;;18.68;63.69
63439;BME280;49567;48.958;8.294;2023-05-21T01:10:22;99951.13;;;18.69;63.44
63439;BME280;49567;48.958;8.294;2023-05-21T01:12:48;99949.19;;;18.69;63.38
63439;BME280;49567;48.958;8.294;2023-05-21T01:15:15;99948.19;;;18.65;63.65
63439;BME280;49567;48.958;8.294;2023-05-21T01:17:40;99945.75;;;18.63;63.95
63439;BME280;49567;48.958;8.294;2023-05-21T01:20:06;99946.38;;;18.60;63.92
63439;BME280;49567;48.958;8.294;2023-05-21T01:22:37;99946.06;;;18.62;63.94
63439;BME280;49567;48.958;8.294;2023-05-21T01:25:06;99937.97;;;18.57;64.21
63439;BME280;49567;48.958;8.294;2023-05-21T01:27:31;99937.34;;;18.60;64.07
63439;BME280;49567;48.958;8.294;2023-05-21T01:29:56;99940.09;;;18.60;64.10
63439;BME280;49567;48.958;8.294;2023-05-21T01:32:31;99942.81;;;18.60;64.41
63439;BME280;49567;48.958;8.294;2023-05-21T01:35:04;99942.31;;;18.58;64.48
63439;BME280;49567;48.958;8.294;2023-05-21T01:37:41;99941.50;;;18.57;64.64
63439;BME280;49567;48.958;8.294;2023-05-21T01:40:17;99941.31;;;18.54;64.77
63439;BME280;49567;48.958;8.294;2023-05-21T01:42:46;99948.53;;;18.50;64.87
63439;BME280;49567;48.958;8.294;2023-05-21T01:45:13;99941.41;;;18.49;65.05
63439;BME280;49567;48.958;8.294;2023-05-21T01:47:40;99951.06;;;18.46;65.17
63439;BME280;49567;48.958;8.294;2023-05-21T01:50:09;99944.28;;;18.44;65.20
63439;BME280;49567;48.958;8.294;2023-05-21T01:52:35;99940.72;;;18.43;65.36
63439;BME280;49567;48.958;8.294;2023-05-21T01:55:00;99937.44;;;18.41;65.23
63439;BME280;49567;48.958;8.294;2023-05-21T01:57:26;99938.59;;;18.40;65.30
63439;BME280;49567;48.958;8.294;2023-05-21T01:59:52;99936.13;;;18.39;65.44
63439;BME280;49567;48.958;8.294;2023-05-21T02:02:17;99929.84;;;18.38;65.59
63439;BME280;49567;48.958;8.294;2023-05-21T02:04:43;99921.94;;;18.37;65.63
63439;BME280;49567;48.958;8.294;2023-05-21T02:07:10;99928.53;;;18.36;65.71
63439;BME280;49567;48.958;8.294;2023-05-21T02:09:38;99916.06;;;18.30;65.66
63439;BME280;49567;48.958;8.294;2023-05-21T02:12:03;99921.53;;;18.30;65.79
63439;BME280;49567;48.958;8.294;2023-05-21T02:14:29;99922.66;;;18.29;65.92
63439;BME280;49567;48.958;8.294;2023-05-21T02:16:54;99921.84;;;18.28;65.95
63439;BME280;49567;48.958;8.294;2023-05-21T02:19:20;99915.53;;;18.28;66.11
63439;BME280;49567;48.958;8.294;2023-05-21T02:21:45;99912.28;;;18.26;66.15
63439;BME280;49567;48.958;8.294;2023-05-21T02:24:11;99913.41;;;18.25;66.12
63439;BME280;49567;48.958;8.294;2023-05-21T02:26:36;99916.16;;;18.25;66.15
63439;BME280;49567;48.958;8.294;2023-05-21T02:29:02;99910.19;;;18.23;66.26
63439;BME280;49567;48.958;8.294;2023-05-21T02:31:27;99911.63;;;18.20;66.42
63439;BME280;49567;48.958;8.294;2023-05-21T02:33:53;99911.91;;;18.19;66.55
63439;BME280;49567;48.958;8.294;2023-05-21T02:36:18;99898.19;;;18.19;66.60
63439;BME280;49567;48.958;8.294;2023-05-21T02:38:44;99909.50;;;18.17;66.71
63439;BME280;49567;48.958;8.294;2023-05-21T02:41:12;99907.38;;;18.14;66.75
63439;BME280;49567;48.958;8.294;2023-05-21T02:43:37;99903.00;;;18.13;66.79
63439;BME280;49567;48.958;8.294;2023-05-21T02:46:04;99908.56;;;18.08;66.88
63439;BME280;49567;48.958;8.294;2023-05-21T02:48:30;99907.06;;;18.02;67.19
63439;BME280;49567;48.958;8.294;2023-05-21T02:50:56;99901.91;;;18.00;67.17
63439;BME280;49567;48.958;8.294;2023-05-21T02:53:21;99899.97;;;18.01;67.30
63439;BME280;49567;48.958;8.294;2023-05-21T02:55:46;99900.59;;;17.98;67.43
63439;BME280;49567;48.958;8.294;2023-05-21T02:58:12;99900.38;;;17.94;67.44
63439;BME280;49567;48.958;8.294;2023-05-21T03:00:39;99903.41;;;17.93;67.53
63439;BME280;49567;48.958;8.294;2023-05-21T03:03:04;99894.91;;;17.94;67.58
63439;BME280;49567;48.958;8.294;2023-05-21T03:05:29;99902.59;;;17.92;67.60
63439;BME280;49567;48.958;8.294;2023-05-21T03:07:55;99908.09;;;17.92;67.45
63439;BME280;49567;48.958;8.294;2023-05-21T03:10:20;99901.59;;;17.88;67.72
63439;BME280;49567;48.958;8.294;2023-05-21T03:12:45;99901.09;;;17.86;67.72
63439;BME280;49567;48.958;8.294;2023-05-21T03:15:11;99904.94;;;17.85;67.79
63439;BME280;49567;48.958;8.294;2023-05-21T03:17:38;99899.25;;;17.82;67.92
63439;BME280;49567;48.958;8.294;2023-05-21T03:20:04;99900.19;;;17.77;67.96
63439;BME280;49567;48.958;8.294;2023-05-21T03:22:30;99899.38;;;17.77;68.13
63439;BME280;49567;48.958;8.294;2023-05-21T03:24:55;99900.00;;;17.74;68.17
63439;BME280;49567;48.958;8.294;2023-05-21T03:27:22;99894.81;;;17.72;68.29
63439;BME280;49567;48.958;8.294;2023-05-21T03:29:47;99897.53;;;17.72;68.47
63439;BME280;49567;48.958;8.294;2023-05-21T03:32:12;99893.19;;;17.71;68.29
63439;BME280;49567;48.958;8.294;2023-05-21T03:34:38;99901.72;;;17.70;68.48
63439;BME280;49567;48.958;8.294;2023-05-21T03:37:03;99897.34;;;17.69;68.31
63439;BME280;49567;48.958;8.294;2023-05-21T03:39:28;99902.63;;;17.65;68.56
63439;BME280;49567;48.958;8.294;2023-05-21T03:41:53;99898.56;;;17.62;68.56
63439;BME280;49567;48.958;8.294;2023-05-21T03:44:19;99902.44;;;17.61;68.53
63439;BME280;49567;48.958;8.294;2023-05-21T03:46:44;99900.59;;;17.57;68.58
63439;BME280;49567;48.958;8.294;2023-05-21T03:49:10;99908.00;;;17.56;68.73
63439;BME280;49567;48.958;8.294;2023-05-21T03:51:35;99910.22;;;17.54;68.75
63439;BME280;49567;48.958;8.294;2023-05-21T03:54:02;99915.41;;;17.56;68.75
63439;BME280;49567;48.958;8.294;2023-05-21T03:56:27;99921.19;;;17.54;68.75
63439;BME280;49567;48.958;8.294;2023-05-21T03:58:53;99921.19;;;17.54;68.93
63439;BME280;49567;48.958;8.294;2023-05-21T04:01:18;99925.03;;;17.53;68.85
63439;BME280;49567;48.958;8.294;2023-05-21T04:03:43;99926.13;;;17.52;68.91
63439;BME280;49567;48.958;8.294;2023-05-21T04:06:09;99925.63;;;17.50;68.95
63439;BME280;49567;48.958;8.294;2023-05-21T04:08:34;99926.75;;;17.49;69.05
63439;BME280;49567;48.958;8.294;2023-05-21T04:11:00;99924.31;;;17.48;69.05
63439;BME280;49567;48.958;8.294;2023-05-21T04:13:26;99928.97;;;17.47;69.04
63439;BME280;49567;48.958;8.294;2023-05-21T04:15:52;99925.22;;;17.43;69.18
63439;BME280;49567;48.958;8.294;2023-05-21T04:18:18;99931.31;;;17.40;69.32
63439;BME280;49567;48.958;8.294;2023-05-21T04:20:44;99932.13;;;17.41;69.34
63439;BME280;49567;48.958;8.294;2023-05-21T04:23:10;99934.53;;;17.42;69.39
63439;BME280;49567;48.958;8.294;2023-05-21T04:25:35;99935.06;;;17.44;69.36
63439;BME280;49567;48.958;8.294;2023-05-21T04:28:03;99932.81;;;17.46;69.42
63439;BME280;49567;48.958;8.294;2023-05-21T04:30:29;99943.28;;;17.44;69.56
63439;BME280;49567;48.958;8.294;2023-05-21T04:32:54;99940.56;;;17.44;69.63
63439;BME280;49567;48.958;8.294;2023-05-21T04:35:19;99933.66;;;17.47;69.63
63439;BME280;49567;48.958;8.294;2023-05-21T04:37:45;99933.34;;;17.48;69.56
63439;BME280;49567;48.958;8.294;2023-05-21T04:40:13;99937.09;;;17.52;69.70
63439;BME280;49567;48.958;8.294;2023-05-21T04:42:43;99941.19;;;17.55;69.61
63439;BME280;49567;48.958;8.294;2023-05-21T04:45:09;99936.09;;;17.48;69.85
63439;BME280;49567;48.958;8.294;2023-05-21T04:47:35;99945.91;;;17.49;69.82
63439;BME280;49567;48.958;8.294;2023-05-21T04:50:01;99949.69;;;17.53;69.72
63439;BME280;49567;48.958;8.294;2023-05-21T04:52:28;99943.84;;;17.60;69.54
63439;BME280;49567;48.958;8.294;2023-05-21T04:54:53;99946.47;;;17.65;69.32
63439;BME280;49567;48.958;8.294;2023-05-21T04:57:18;99943.13;;;17.68;69.21
63439;BME280;49567;48.958;8.294;2023-05-21T04:59:44;99952.97;;;17.69;69.34
63439;BME280;49567;48.958;8.294;2023-05-21T05:02:09;99955.91;;;17.73;69.15
63439;BME280;49567;48.958;8.294;2023-05-21T05:04:34;99947.09;;;17.76;69.06
63439;BME280;49567;48.958;8.294;2023-05-21T05:07:00;99952.78;;;17.79;69.15
63439;BME280;49567;48.958;8.294;2023-05-21T05:09:25;99960.19;;;17.79;69.06
63439;BME280;49567;48.958;8.294;2023-05-21T05:11:50;99958.78;;;17.81;69.16
63439;BME280;49567;48.958;8.294;2023-05-21T05:14:16;99957.84;;;17.86;68.98
63439;BME280;49567;48.958;8.294;2023-05-21T05:16:41;99952.88;;;17.88;68.90
63439;BME280;49567;48.958;8.294;2023-05-21T05:19:07;99948.03;;;17.85;68.98
63439;BME280;49567;48.958;8.294;2023-05-21T05:21:32;99955.09;;;17.86;69.09
63439;BME280;49567;48.958;8.294;2023-05-21T05:23:57;99950.84;;;17.93;68.89
63439;BME280;49567;48.958;8.294;2023-05-21T05:26:22;99948.81;;;17.99;68.88
63439;BME280;49567;48.958;8.294;2023-05-21T05:28:48;99953.88;;;18.05;68.79
63439;BME280;49567;48.958;8.294;2023-05-21T05:31:13;99956.53;;;18.10;68.59
63439;BME280;49567;48.958;8.294;2023-05-21T05:33:38;99954.97;;;18.18;68.50
63439;BME280;49567;48.958;8.294;2023-05-21T05:36:05;99949.69;;;18.22;68.42
63439;BME280;49567;48.958;8.294;2023-05-21T05:38:30;99949.88;;;18.25;68.34
63439;BME280;49567;48.958;8.294;2023-05-21T05:40:55;99940.53;;;18.26;68.45
63439;BME280;49567;48.958;8.294;2023-05-21T05:43:21;99944.41;;;18.25;68.57
63439;BME280;49567;48.958;8.294;2023-05-21T05:45:46;99939.44;;;18.27;68.46
63439;BME280;49567;48.958;8.294;2023-05-21T05:48:11;99939.63;;;18.31;68.40
63439;BME280;49567;48.958;8.294;2023-05-21T05:50:37;99944.69;;;18.37;68.34
63439;BME280;49567;48.958;8.294;2023-05-21T05:53:02;99942.25;;;18.36;68.36
63439;BME280;49567;48.958;8.294;2023-05-21T05:55:27;99944.19;;;18.35;68.39
63439;BME280;49567;48.958;8.294;2023-05-21T05:57:52;99937.78;;;18.40;68.09
63439;BME280;49567;48.958;8.294;2023-05-21T06:00:18;99947.50;;;18.46;68.00
63439;BME280;49567;48.958;8.294;2023-05-21T06:02:44;99943.06;;;18.50;67.87
63439;BME280;49567;48.958;8.294;2023-05-21T06:05:09;99940.00;;;18.51;67.73
63439;BME280;49567;48.958;8.294;2023-05-21T06:07:38;99943.94;;;18.59;67.68
63439;BME280;49567;48.958;8.294;2023-05-21T06:10:07;99938.66;;;18.62;67.46
63439;BME280;49567;48.958;8.294;2023-05-21T06:12:32;99933.66;;;18.64;67.57
63439;BME280;49567;48.958;8.294;2023-05-21T06:14:58;99938.03;;;18.65;67.54
63439;BME280;49567;48.958;8.294;2023-05-21T06:17:23;99945.97;;;18.67;67.56
63439;BME280;49567;48.958;8.294;2023-05-21T06:19:48;99938.50;;;18.67;67.52
63439;BME280;49567;48.958;8.294;2023-05-21T06:22:14;99938.22;;;18.69;67.62
63439;BME280;49567;48.958;8.294;2023-05-21T06:24:39;99945.00;;;18.72;67.62
63439;BME280;49567;48.958;8.294;2023-05-21T06:27:04;99946.84;;;18.76;67.31
63439;BME280;49567;48.958;8.294;2023-05-21T06:29:30;99947.66;;;18.77;67.20
63439;BME280;49567;48.958;8.294;2023-05-21T06:31:55;99949.75;;;18.80;67.18
63439;BME280;49567;48.958;8.294;2023-05-21T06:34:20;99952.69;;;18.83;66.95
63439;BME280;49567;48.958;8.294;2023-05-21T06:36:47;99951.44;;;18.89;66.84
63439;BME280;49567;48.958;8.294;2023-05-21T06:39:12;99956.81;;;18.94;66.72
63439;BME280;49567;48.958;8.294;2023-05-21T06:41:38;99947.63;;;18.99;66.70
63439;BME280;49567;48.958;8.294;2023-05-21T06:44:03;99950.56;;;19.02;66.58
63439;BME280;49567;48.958;8.294;2023-05-21T06:46:29;99947.19;;;19.05;66.44
63439;BME280;49567;48.958;8.294;2023-05-21T06:48:54;99945.47;;;19.09;66.63
63439;BME280;49567;48.958;8.294;2023-05-21T06:51:20;99954.19;;;19.11;66.40
63439;BME280;49567;48.958;8.294;2023-05-21T06:53:45;99945.63;;;19.13;66.52
63439;BME280;49567;48.958;8.294;2023-05-21T06:56:10;99947.94;;;19.20;66.21
63439;BME280;49567;48.958;8.294;2023-05-21T06:58:36;99945.38;;;19.23;66.13
63439;BME280;49567;48.958;8.294;2023-05-21T07:01:02;99942.50;;;19.28;66.14
63439;BME280;49567;48.958;8.294;2023-05-21T07:03:27;99937.63;;;19.25;66.28
63439;BME280;49567;48.958;8.294;2023-05-21T07:05:53;99936.69;;;19.30;65.97
63439;BME280;49567;48.958;8.294;2023-05-21T07:08:21;99939.47;;;19.38;65.96
63439;BME280;49567;48.958;8.294;2023-05-21T07:10:47;99946.81;;;19.43;65.68
63439;BME280;49567;48.958;8.294;2023-05-21T07:13:13;99943.44;;;19.46;65.78
63439;BME280;49567;48.958;8.294;2023-05-21T07:15:38;99942.81;;;19.49;65.60
63439;BME280;49567;48.958;8.294;2023-05-21T07:18:05;99932.16;;;19.56;65.23
63439;BME280;49567;48.958;8.294;2023-05-21T07:20:31;99948.50;;;19.61;65.34
63439;BME280;49567;48.958;8.294;2023-05-21T07:22:56;99943.81;;;19.61;65.20
63439;BME280;49567;48.958;8.294;2023-05-21T07:25:21;99944.00;;;19.65;65.31
63439;BME280;49567;48.958;8.294;2023-05-21T07:27:47;99939.50;;;19.69;65.15
63439;BME280;49567;48.958;8.294;2023-05-21T07:30:15;99937.72;;;19.73;64.92
63439;BME280;49567;48.958;8.294;2023-05-21T07:32:40;99935.31;;;19.80;64.86
63439;BME280;49567;48.958;8.294;2023-05-21T07:35:06;99936.16;;;19.89;64.65
63439;BME280;49567;48.958;8.294;2023-05-21T07:37:31;99930.69;;;19.98;64.48
63439;BME280;49567;48.958;8.294;2023-05-21T07:39:57;99930.84;;;20.01;64.46
63439;BME280;49567;48.958;8.294;2023-05-21T07:42:25;99925.84;;;20.03;64.22
63439;BME280;49567;48.958;8.294;2023-05-21T07:44:50;99926.66;;;20.12;64.16
63439;BME280;49567;48.958;8.294;2023-05-21T07:47:16;99929.75;;;20.19;63.66
63439;BME280;49567;48.958;8.294;2023-05-21T07:49:41;99933.84;;;20.31;63.51
63439;BME280;49567;48.958;8.294;2023-05-21T07:52:07;99936.59;;;20.31;63.20
63439;BME280;49567;48.958;8.294;2023-05-21T07:54:32;99931.91;;;20.40;63.08
63439;BME280;49567;48.958;8.294;2023-05-21T07:56:57;99931.44;;;20.46;62.97
63439;BME280;49567;48.958;8.294;2023-05-21T07:59:25;99935.34;;;20.54;62.66
63439;BME280;49567;48.958;8.294;2023-05-21T08:01:51;99938.06;;;20.62;62.44
63439;BME280;49567;48.958;8.294;2023-05-21T08:04:16;99932.41;;;20.76;62.06
63439;BME280;49567;48.958;8.294;2023-05-21T08:06:41;99925.28;;;20.84;61.88
63439;BME280;49567;48.958;8.294;2023-05-21T08:09:07;99931.59;;;20.84;62.02
63439;BME280;49567;48.958;8.294;2023-05-21T08:11:36;99924.75;;;20.99;61.55
63439;BME280;49567;48.958;8.294;2023-05-21T08:14:01;99920.84;;;21.08;61.08
63439;BME280;49567;48.958;8.294;2023-05-21T08:16:26;99918.09;;;21.08;61.09
63439;BME280;49567;48.958;8.294;2023-05-21T08:18:52;99921.66;;;21.09;61.27
63439;BME280;49567;48.958;8.294;2023-05-21T08:21:17;99927.69;;;21.11;61.12
63439;BME280;49567;48.958;8.294;2023-05-21T08:23:43;99929.47;;;21.15;60.94
63439;BME280;49567;48.958;8.294;2023-05-21T08:26:08;99929.47;;;21.15;60.92
63439;BME280;49567;48.958;8.294;2023-05-21T08:28:37;99917.91;;;21.31;60.32
63439;BME280;49567;48.958;8.294;2023-05-21T08:31:02;99921.31;;;21.36;59.90
63439;BME280;49567;48.958;8.294;2023-05-21T08:33:27;99919.84;;;21.39;59.63
63439;BME280;49567;48.958;8.294;2023-05-21T08:35:53;99916.09;;;21.43;59.39
63439;BME280;49567;48.958;8.294;2023-05-21T08:38:18;99924.53;;;21.47;59.09
63439;BME280;49567;48.958;8.294;2023-05-21T08:40:45;99918.66;;;21.48;59.01
63439;BME280;49567;48.958;8.294;2023-05-21T08:43:12;99923.88;;;21.50;58.96
63439;BME280;49567;48.958;8.294;2023-05-21T08:45:40;99917.19;;;21.51;58.82
63439;BME280;49567;48.958;8.294;2023-05-21T08:48:08;99925.44;;;21.59;58.77
63439;BME280;49567;48.958;8.294;2023-05-21T08:50:33;99925.25;;;21.64;58.43
63439;BME280;49567;48.958;8.294;2023-05-21T08:52:58;99920.31;;;21.79;58.14
63439;BME280;49567;48.958;8.294;2023-05-21T08:55:27;99923.38;;;21.86;57.98
63439;BME280;49567;48.958;8.294;2023-05-21T08:57:53;99924.31;;;21.98;57.67
63439;BME280;49567;48.958;8.294;2023-05-21T09:00:19;99926.44;;;22.22;57.29
63439;BME280;49567;48.958;8.294;2023-05-21T09:02:49;99930.63;;;22.49;56.55
63439;BME280;49567;48.958;8.294;2023-05-21T09:05:15;99928.63;;;22.79;55.52
63439;BME280;49567;48.958;8.294;2023-05-21T09:10:23;99931.28;;;23.08;54.99
63439;BME280;49567;48.958;8.294;2023-05-21T09:12:51;99931.00;;;23.34;54.75
63439;BME280;49567;48.958;8.294;2023-05-21T09:15:16;99934.88;;;23.53;54.06
63439;BME280;49567;48.958;8.294;2023-05-21T09:17:45;99930.72;;;23.71;53.89
63439;BME280;49567;48.958;8.294;2023-05-21T09:20:11;99931.88;;;23.83;53.19
63439;BME280;49567;48.958;8.294;2023-05-21T09:22:40;99921.97;;;23.94;53.18
63439;BME280;49567;48.958;8.294;2023-05-21T09:25:06;99931.19;;;23.98;51.95
63439;BME280;49567;48.958;8.294;2023-05-21T09:27:33;99925.53;;;23.94;51.82
63439;BME280;49567;48.958;8.294;2023-05-21T09:29:58;99930.28;;;23.94;52.30
63439;BME280;49567;48.958;8.294;2023-05-21T09:32:23;99930.16;;;23.90;51.77
63439;BME280;49567;48.958;8.294;2023-05-21T09:34:49;99933.59;;;23.75;51.29
63439;BME280;49567;48.958;8.294;2023-05-21T09:37:15;99936.16;;;23.80;51.38
63439;BME280;49567;48.958;8.294;2023-05-21T09:39:40;99927.84;;;23.80;50.86
63439;BME280;49567;48.958;8.294;2023-05-21T09:42:09;99934.28;;;23.72;50.80
63439;BME280;49567;48.958;8.294;2023-05-21T09:44:34;99932.34;;;23.72;51.08
63439;BME280;49567;48.958;8.294;2023-05-21T09:47:00;99927.63;;;23.73;50.89
63439;BME280;49567;48.958;8.294;2023-05-21T09:49:26;99930.25;;;23.69;50.93
63439;BME280;49567;48.958;8.294;2023-05-21T09:51:55;99924.50;;;23.62;50.85
63439;BME280;49567;48.958;8.294;2023-05-21T09:54:22;99933.47;;;23.71;50.89
63439;BME280;49567;48.958;8.294;2023-05-21T09:56:50;99927.16;;;23.83;51.27
63439;BME280;49567;48.958;8.294;2023-05-21T09:59:17;99930.75;;;23.84;51.20
63439;BME280;49567;48.958;8.294;2023-05-21T10:01:42;99930.63;;;23.92;51.04
63439;BME280;49567;48.958;8.294;2023-05-21T10:04:08;99931.75;;;23.91;51.15
63439;BME280;49567;48.958;8.294;2023-05-21T10:06:41;99930.84;;;23.87;50.71
63439;BME280;49567;48.958;8.294;2023-05-21T10:09:13;99922.88;;;23.98;51.14
63439;BME280;49567;48.958;8.294;2023-05-21T10:11:43;99923.22;;;24.08;51.20
63439;BME280;49567;48.958;8.294;2023-05-21T10:14:17;99916.91;;;24.20;50.61
63439;BME280;49567;48.958;8.294;2023-05-21T10:16:45;99920.22;;;24.25;50.63
63439;BME280;49567;48.958;8.294;2023-05-21T10:19:12;99918.03;;;24.31;50.55
63439;BME280;49567;48.958;8.294;2023-05-21T10:21:38;99921.38;;;24.37;50.50
63439;BME280;49567;48.958;8.294;2023-05-21T10:24:05;99916.56;;;24.61;50.45
63439;BME280;49567;48.958;8.294;2023-05-21T10:26:34;99910.00;;;24.94;49.70
63439;BME280;49567;48.958;8.294;2023-05-21T10:29:01;99904.00;;;24.92;49.44
63439;BME280;49567;48.958;8.294;2023-05-21T10:31:27;99918.22;;;24.90;49.26
63439;BME280;49567;48.958;8.294;2023-05-21T10:33:53;99911.88;;;24.77;49.53
63439;BME280;49567;48.958;8.294;2023-05-21T10:36:19;99905.31;;;24.70;49.51
63439;BME280;49567;48.958;8.294;2023-05-21T10:38:46;99910.03;;;24.82;49.73
63439;BME280;49567;48.958;8.294;2023-05-21T10:41:14;99905.28;;;25.10;49.56
63439;BME280;49567;48.958;8.294;2023-05-21T10:43:44;99905.59;;;25.36;48.74
63439;BME280;49567;48.958;8.294;2023-05-21T10:51:58;99903.03;;;25.74;48.03
63439;BME280;49567;48.958;8.294;2023-05-21T10:54:46;99901.75;;;26.03;47.56
63439;BME280;49567;48.958;8.294;2023-05-21T10:57:53;99903.22;;;26.32;47.26
63439;BME280;49567;48.958;8.294;2023-05-21T11:00:24;99908.53;;;26.56;46.30
63439;BME280;49567;48.958;8.294;2023-05-21T11:02:51;99899.69;;;26.89;45.39
63439;BME280;49567;48.958;8.294;2023-05-21T11:05:37;99903.28;;;27.31;44.52
63439;BME280;49567;48.958;8.294;2023-05-21T11:08:04;99906.91;;;27.55;44.04
63439;BME280;49567;48.958;8.294;2023-05-21T11:10:34;99903.31;;;27.54;44.07
63439;BME280;49567;48.958;8.294;2023-05-21T11:13:10;99904.09;;;27.32;44.17
63439;BME280;49567;48.958;8.294;2023-05-21T11:21:13;99898.47;;;26.71;45.50
63439;BME280;49567;48.958;8.294;2023-05-21T11:23:52;99898.38;;;26.64;45.91
63439;BME280;49567;48.958;8.294;2023-05-21T11:26:18;99895.44;;;26.38;46.20
63439;BME280;49567;48.958;8.294;2023-05-21T11:28:44;99893.59;;;26.10;46.72
63439;BME280;49567;48.958;8.294;2023-05-21T11:31:23;99896.88;;;26.16;46.69
63439;BME280;49567;48.958;8.294;2023-05-21T11:34:19;99892.41;;;26.46;46.24
63439;BME280;49567;48.958;8.294;2023-05-21T11:39:50;99893.13;;;27.20;44.96
63439;BME280;49567;48.958;8.294;2023-05-21T11:42:29;99895.19;;;28.47;42.63
63439;BME280;49567;48.958;8.294;2023-05-21T11:44:56;99899.56;;;29.08;41.96
63439;BME280;49567;48.958;8.294;2023-05-21T11:47:25;99905.66;;;29.57;40.89
63439;BME280;49567;48.958;8.294;2023-05-21T11:49:51;99902.94;;;29.68;40.31
63439;BME280;49567;48.958;8.294;2023-05-21T11:52:16;99898.19;;;30.23;38.75
63439;BME280;49567;48.958;8.294;2023-05-21T11:54:46;99904.09;;;30.83;36.83
63439;BME280;49567;48.958;8.294;2023-05-21T11:57:13;99891.59;;;30.56;36.66
63439;BME280;49567;48.958;8.294;2023-05-21T11:59:41;99900.59;;;30.28;36.45
63439;BME280;49567;48.958;8.294;2023-05-21T12:02:07;99893.91;;;30.40;36.40
63439;BME280;49567;48.958;8.294;2023-05-21T12:04:35;99891.88;;;30.33;35.60
63439;BME280;49567;48.958;8.294;2023-05-21T12:07:06;99891.38;;;30.20;35.60
63439;BME280;49567;48.958;8.294;2023-05-21T12:09:42;99889.31;;;30.10;35.58
63439;BME280;49567;48.958;8.294;2023-05-21T12:12:09;99895.59;;;29.93;35.39
63439;BME280;49567;48.958;8.294;2023-05-21T12:14:36;99888.53;;;30.10;35.22
63439;BME280;49567;48.958;8.294;2023-05-21T12:17:03;99890.03;;;29.97;35.26
63439;BME280;49567;48.958;8.294;2023-05-21T12:19:35;99886.28;;;29.78;35.50
63439;BME280;49567;48.958;8.294;2023-05-21T12:22:02;99884.06;;;29.54;36.48
63439;BME280;49567;48.958;8.294;2023-05-21T12:24:28;99881.38;;;29.24;37.40
63439;BME280;49567;48.958;8.294;2023-05-21T12:26:55;99886.63;;;28.93;38.20
63439;BME280;49567;48.958;8.294;2023-05-21T12:29:24;99886.13;;;28.83;37.86
63439;BME280;49567;48.958;8.294;2023-05-21T12:31:50;99881.63;;;28.75;38.64
63439;BME280;49567;48.958;8.294;2023-05-21T12:34:15;99885.81;;;28.62;39.13
63439;BME280;49567;48.958;8.294;2023-05-21T12:36:43;99878.03;;;28.42;39.63
63439;BME280;49567;48.958;8.294;2023-05-21T12:39:10;99880.66;;;28.31;39.96
63439;BME280;49567;48.958;8.294;2023-05-21T12:41:36;99886.78;;;28.14;40.04
63439;BME280;49567;48.958;8.294;2023-05-21T12:44:04;99882.34;;;27.87;40.56
63439;BME280;49567;48.958;8.294;2023-05-21T12:46:30;99892.53;;;27.75;40.42
63439;BME280;49567;48.958;8.294;2023-05-21T12:48:55;99888.41;;;27.66;40.60
63439;BME280;49567;48.958;8.294;2023-05-21T12:51:20;99878.78;;;27.63;41.06
63439;BME280;49567;48.958;8.294;2023-05-21T12:53:46;99883.88;;;27.58;41.13
63439;BME280;49567;48.958;8.294;2023-05-21T12:56:13;99894.22;;;27.57;41.52
63439;BME280;49567;48.958;8.294;2023-05-21T12:58:39;99889.31;;;27.51;41.26
63439;BME280;49567;48.958;8.294;2023-05-21T13:01:09;99884.00;;;27.42;41.93
63439;BME280;49567;48.958;8.294;2023-05-21T13:03:40;99881.81;;;27.32;42.14
63439;BME280;49567;48.958;8.294;2023-05-21T13:06:07;99888.94;;;27.29;41.93
63439;BME280;49567;48.958;8.294;2023-05-21T13:08:32;99889.22;;;27.24;41.85
63439;BME280;49567;48.958;8.294;2023-05-21T13:10:59;99877.75;;;27.26;41.24
63439;BME280;49567;48.958;8.294;2023-05-21T13:13:25;99884.97;;;27.30;40.76
63439;BME280;49567;48.958;8.294;2023-05-21T13:15:59;99881.34;;;27.26;40.97